Etusivu
METAR-TAF:

METAR-TAF

Lentoasemat :

Niamey, Niger

Diori Hamanin kansainvälinen lentoasema

Leveyspiiri: 13-29N, Pituuspiiri: 002-10E, korkeus merenpinnasta: 223 m

Tämänhetkinen sää

Tämä raportti tehtiin 52 minuuttia sitten, kello 00.00 UTC
Tuuli 1 kn eri suunnista
Lämpötila 28°C
Kosteus 11%
Ilmanpaine 1009 hPa
Näkyvyys: 8000 m

METAR: DRRN 300000Z VRB01KT 8000 NSC 28/M05 Q1009 NOSIG

Aika: 01:52 (00:52 UTC)

Sääennuste

Tämä raportti tehtiin 1 tunti ja 52 minuuttia sitten, kello 23.00 UTC
Ennuste voimassa 30. päivästä klo 00 UTC - 31. päivään klo 06 UTC
Tuuli 8 kn koillisesta
Näkyvyys: 8000 m
Ajoittain
30. päivästä klo 06 UTC - 30. päivään klo 09 UTC
Näkyvyys: 4000 m
laajalle levinnyttä pölyä

TAF: DRRN 292300Z 3000/3106 04008KT 8000 NSC TEMPO 3006/3009 4000 DU

Säähavainnot ja -ennusteet yli 4000 lentoasemalta (METAR- ja TAF-raportit).

Käytössä olevat sääasemat on merkitty karttaan keltaisilla ja punaisilla pisteillä.

Aseta hiiri pisteen päälle nähdäksesi sääaseman nimen.

Klikkaa sitten nähdäksesi säähavainnot ja -ennusteet.

Kartan vaihtaminen: klikkaa mustalla rastilla varustettuja vihreitä pisteitä, niin voit zoomata sisään; viivalla varustettua vihreää pistettä, niin voit zoomata ulos tai vihreitä nuolia, niin pääset viereisille kartoille.


METAR-TAF: